sensor_id;sensor_type;location;lat;lon;timestamp;P1;durP1;ratioP1;P2;durP2;ratioP2
23400;SDS011;11873;49.300;8.920;2022-08-04T00:01:07;2.60;;;2.40;;
23400;SDS011;11873;49.300;8.920;2022-08-04T00:06:51;1.80;;;1.70;;
23400;SDS011;11873;49.300;8.920;2022-08-04T00:11:31;2.33;;;1.92;;
23400;SDS011;11873;49.300;8.920;2022-08-04T00:16:36;2.30;;;2.10;;
23400;SDS011;11873;49.300;8.920;2022-08-04T00:21:38;2.37;;;2.17;;
23400;SDS011;11873;49.300;8.920;2022-08-04T00:26:38;1.90;;;1.80;;
23400;SDS011;11873;49.300;8.920;2022-08-04T00:31:40;3.40;;;2.15;;
23400;SDS011;11873;49.300;8.920;2022-08-04T00:36:44;2.10;;;2.00;;
23400;SDS011;11873;49.300;8.920;2022-08-04T00:41:52;2.65;;;2.12;;
23400;SDS011;11873;49.300;8.920;2022-08-04T00:52:05;2.07;;;1.97;;
23400;SDS011;11873;49.300;8.920;2022-08-04T01:02:12;2.35;;;2.15;;
23400;SDS011;11873;49.300;8.920;2022-08-04T01:07:30;1.95;;;1.80;;
23400;SDS011;11873;49.300;8.920;2022-08-04T01:12:55;2.30;;;2.10;;
23400;SDS011;11873;49.300;8.920;2022-08-04T01:23:09;2.08;;;1.98;;
23400;SDS011;11873;49.300;8.920;2022-08-04T01:33:16;1.60;;;1.50;;
23400;SDS011;11873;49.300;8.920;2022-08-04T01:43:23;2.23;;;2.00;;
23400;SDS011;11873;49.300;8.920;2022-08-04T01:48:24;2.40;;;2.20;;
23400;SDS011;11873;49.300;8.920;2022-08-04T01:53:28;2.60;;;1.90;;
23400;SDS011;11873;49.300;8.920;2022-08-04T01:58:29;1.95;;;1.75;;
23400;SDS011;11873;49.300;8.920;2022-08-04T02:03:30;3.05;;;2.12;;
23400;SDS011;11873;49.300;8.920;2022-08-04T02:08:41;1.83;;;1.73;;
23400;SDS011;11873;49.300;8.920;2022-08-04T02:18:56;2.10;;;1.98;;
23400;SDS011;11873;49.300;8.920;2022-08-04T02:24:09;4.85;;;1.85;;
23400;SDS011;11873;49.300;8.920;2022-08-04T02:29:12;2.58;;;2.15;;
23400;SDS011;11873;49.300;8.920;2022-08-04T02:39:19;1.98;;;1.87;;
23400;SDS011;11873;49.300;8.920;2022-08-04T02:44:21;2.87;;;1.90;;
23400;SDS011;11873;49.300;8.920;2022-08-04T02:49:21;2.75;;;2.08;;
23400;SDS011;11873;49.300;8.920;2022-08-04T02:54:22;1.85;;;1.75;;
23400;SDS011;11873;49.300;8.920;2022-08-04T02:59:25;1.83;;;1.67;;
23400;SDS011;11873;49.300;8.920;2022-08-04T03:04:41;2.70;;;2.05;;
23400;SDS011;11873;49.300;8.920;2022-08-04T03:09:58;2.20;;;2.10;;
23400;SDS011;11873;49.300;8.920;2022-08-04T03:15:08;2.10;;;1.90;;
23400;SDS011;11873;49.300;8.920;2022-08-04T03:30:57;2.10;;;2.00;;
23400;SDS011;11873;49.300;8.920;2022-08-04T03:46:32;2.42;;;2.03;;
23400;SDS011;11873;49.300;8.920;2022-08-04T03:57:14;2.67;;;2.47;;
23400;SDS011;11873;49.300;8.920;2022-08-04T04:02:38;3.78;;;2.50;;
23400;SDS011;11873;49.300;8.920;2022-08-04T04:17:51;3.53;;;3.20;;
23400;SDS011;11873;49.300;8.920;2022-08-04T04:28:37;2.90;;;2.62;;
23400;SDS011;11873;49.300;8.920;2022-08-04T04:33:52;4.67;;;2.37;;
23400;SDS011;11873;49.300;8.920;2022-08-04T04:38:56;2.67;;;2.03;;
23400;SDS011;11873;49.300;8.920;2022-08-04T04:44:10;3.50;;;2.50;;
23400;SDS011;11873;49.300;8.920;2022-08-04T04:49:18;2.57;;;2.23;;
23400;SDS011;11873;49.300;8.920;2022-08-04T04:54:33;2.23;;;2.13;;
23400;SDS011;11873;49.300;8.920;2022-08-04T04:59:37;3.50;;;2.10;;
23400;SDS011;11873;49.300;8.920;2022-08-04T05:04:44;3.65;;;2.47;;
23400;SDS011;11873;49.300;8.920;2022-08-04T05:14:54;2.43;;;2.30;;
23400;SDS011;11873;49.300;8.920;2022-08-04T05:25:21;2.75;;;2.55;;
23400;SDS011;11873;49.300;8.920;2022-08-04T05:30:23;3.83;;;2.40;;
23400;SDS011;11873;49.300;8.920;2022-08-04T05:35:26;3.07;;;2.87;;
23400;SDS011;11873;49.300;8.920;2022-08-04T05:40:27;3.85;;;2.75;;
23400;SDS011;11873;49.300;8.920;2022-08-04T05:45:28;2.90;;;2.70;;
23400;SDS011;11873;49.300;8.920;2022-08-04T05:50:29;2.30;;;2.20;;
23400;SDS011;11873;49.300;8.920;2022-08-04T05:55:29;2.62;;;2.42;;
23400;SDS011;11873;49.300;8.920;2022-08-04T06:00:29;2.33;;;2.12;;
23400;SDS011;11873;49.300;8.920;2022-08-04T06:05:30;2.60;;;2.12;;
23400;SDS011;11873;49.300;8.920;2022-08-04T06:10:31;2.37;;;2.17;;
23400;SDS011;11873;49.300;8.920;2022-08-04T06:15:34;2.83;;;2.27;;
23400;SDS011;11873;49.300;8.920;2022-08-04T06:20:37;2.35;;;2.12;;
23400;SDS011;11873;49.300;8.920;2022-08-04T06:25:42;2.15;;;1.98;;
23400;SDS011;11873;49.300;8.920;2022-08-04T06:30:43;2.15;;;1.95;;
23400;SDS011;11873;49.300;8.920;2022-08-04T06:35:44;5.70;;;1.97;;
23400;SDS011;11873;49.300;8.920;2022-08-04T06:40:44;2.33;;;1.50;;
23400;SDS011;11873;49.300;8.920;2022-08-04T06:45:45;1.97;;;1.87;;
23400;SDS011;11873;49.300;8.920;2022-08-04T06:50:47;2.10;;;2.00;;
23400;SDS011;11873;49.300;8.920;2022-08-04T06:55:47;4.30;;;2.30;;
23400;SDS011;11873;49.300;8.920;2022-08-04T07:00:48;1.97;;;1.87;;
23400;SDS011;11873;49.300;8.920;2022-08-04T07:05:50;1.95;;;1.80;;
23400;SDS011;11873;49.300;8.920;2022-08-04T07:10:50;1.95;;;1.85;;
23400;SDS011;11873;49.300;8.920;2022-08-04T07:15:50;2.70;;;2.00;;
23400;SDS011;11873;49.300;8.920;2022-08-04T07:20:51;3.70;;;2.05;;
23400;SDS011;11873;49.300;8.920;2022-08-04T07:25:55;1.77;;;1.52;;
23400;SDS011;11873;49.300;8.920;2022-08-04T07:30:56;1.92;;;1.77;;
23400;SDS011;11873;49.300;8.920;2022-08-04T07:35:56;2.10;;;1.90;;
23400;SDS011;11873;49.300;8.920;2022-08-04T07:40:56;1.80;;;1.70;;
23400;SDS011;11873;49.300;8.920;2022-08-04T07:45:57;1.80;;;1.70;;
23400;SDS011;11873;49.300;8.920;2022-08-04T07:50:57;3.35;;;1.73;;
23400;SDS011;11873;49.300;8.920;2022-08-04T07:55:57;1.85;;;1.75;;
23400;SDS011;11873;49.300;8.920;2022-08-04T08:00:57;1.80;;;1.70;;
23400;SDS011;11873;49.300;8.920;2022-08-04T08:05:58;1.83;;;1.73;;
23400;SDS011;11873;49.300;8.920;2022-08-04T08:10:58;1.87;;;1.77;;
23400;SDS011;11873;49.300;8.920;2022-08-04T08:15:58;2.08;;;1.87;;
23400;SDS011;11873;49.300;8.920;2022-08-04T08:21:00;2.20;;;2.00;;
23400;SDS011;11873;49.300;8.920;2022-08-04T08:26:00;3.72;;;1.90;;
23400;SDS011;11873;49.300;8.920;2022-08-04T08:31:02;2.00;;;1.90;;
23400;SDS011;11873;49.300;8.920;2022-08-04T08:36:03;1.62;;;1.52;;
23400;SDS011;11873;49.300;8.920;2022-08-04T08:41:18;3.33;;;1.98;;
23400;SDS011;11873;49.300;8.920;2022-08-04T08:51:37;1.62;;;1.52;;
23400;SDS011;11873;49.300;8.920;2022-08-04T08:56:46;1.90;;;1.73;;
23400;SDS011;11873;49.300;8.920;2022-08-04T09:02:14;3.67;;;1.80;;
23400;SDS011;11873;49.300;8.920;2022-08-04T09:07:34;2.23;;;2.13;;
23400;SDS011;11873;49.300;8.920;2022-08-04T09:12:44;2.00;;;1.80;;
23400;SDS011;11873;49.300;8.920;2022-08-04T09:17:56;2.35;;;2.15;;
23400;SDS011;11873;49.300;8.920;2022-08-04T09:23:02;2.47;;;1.97;;
23400;SDS011;11873;49.300;8.920;2022-08-04T09:28:08;2.45;;;2.25;;
23400;SDS011;11873;49.300;8.920;2022-08-04T09:33:14;2.33;;;2.22;;
23400;SDS011;11873;49.300;8.920;2022-08-04T09:38:32;2.17;;;2.08;;
23400;SDS011;11873;49.300;8.920;2022-08-04T09:48:38;2.25;;;2.08;;
23400;SDS011;11873;49.300;8.920;2022-08-04T10:04:02;3.85;;;2.33;;
23400;SDS011;11873;49.300;8.920;2022-08-04T10:19:26;2.12;;;2.03;;
23400;SDS011;11873;49.300;8.920;2022-08-04T10:24:30;2.58;;;2.35;;
23400;SDS011;11873;49.300;8.920;2022-08-04T10:29:53;2.35;;;2.15;;
23400;SDS011;11873;49.300;8.920;2022-08-04T10:40:05;2.35;;;2.05;;
23400;SDS011;11873;49.300;8.920;2022-08-04T10:50:08;2.37;;;2.17;;
23400;SDS011;11873;49.300;8.920;2022-08-04T11:00:10;2.20;;;2.10;;
23400;SDS011;11873;49.300;8.920;2022-08-04T11:05:23;1.92;;;1.83;;
23400;SDS011;11873;49.300;8.920;2022-08-04T11:10:27;2.58;;;2.37;;
23400;SDS011;11873;49.300;8.920;2022-08-04T11:15:35;2.10;;;2.00;;
23400;SDS011;11873;49.300;8.920;2022-08-04T11:25:46;2.12;;;2.00;;
23400;SDS011;11873;49.300;8.920;2022-08-04T11:30:52;1.95;;;1.85;;
23400;SDS011;11873;49.300;8.920;2022-08-04T11:36:19;3.17;;;2.37;;
23400;SDS011;11873;49.300;8.920;2022-08-04T11:41:17;2.50;;;2.33;;
23400;SDS011;11873;49.300;8.920;2022-08-04T11:46:22;2.23;;;2.03;;
23400;SDS011;11873;49.300;8.920;2022-08-04T11:51:24;2.25;;;2.08;;
23400;SDS011;11873;49.300;8.920;2022-08-04T11:56:26;2.00;;;1.90;;
23400;SDS011;11873;49.300;8.920;2022-08-04T12:11:48;2.40;;;2.23;;
23400;SDS011;11873;49.300;8.920;2022-08-04T12:16:58;2.30;;;2.10;;
23400;SDS011;11873;49.300;8.920;2022-08-04T12:22:00;3.92;;;2.03;;
23400;SDS011;11873;49.300;8.920;2022-08-04T12:27:24;2.80;;;2.40;;
23400;SDS011;11873;49.300;8.920;2022-08-04T12:32:23;1.93;;;1.80;;
23400;SDS011;11873;49.300;8.920;2022-08-04T12:37:27;2.28;;;2.17;;
23400;SDS011;11873;49.300;8.920;2022-08-04T12:47:58;2.40;;;2.23;;
23400;SDS011;11873;49.300;8.920;2022-08-04T12:52:59;2.50;;;2.30;;
23400;SDS011;11873;49.300;8.920;2022-08-04T12:58:00;2.58;;;2.37;;
23400;SDS011;11873;49.300;8.920;2022-08-04T13:03:05;3.80;;;2.30;;
23400;SDS011;11873;49.300;8.920;2022-08-04T13:08:08;3.47;;;1.92;;
23400;SDS011;11873;49.300;8.920;2022-08-04T13:13:19;2.27;;;2.07;;
23400;SDS011;11873;49.300;8.920;2022-08-04T13:18:20;2.10;;;2.00;;
23400;SDS011;11873;49.300;8.920;2022-08-04T13:23:21;3.92;;;1.98;;
23400;SDS011;11873;49.300;8.920;2022-08-04T13:28:25;2.45;;;2.17;;
23400;SDS011;11873;49.300;8.920;2022-08-04T13:33:30;2.25;;;2.00;;
23400;SDS011;11873;49.300;8.920;2022-08-04T13:38:31;2.35;;;2.15;;
23400;SDS011;11873;49.300;8.920;2022-08-04T13:43:32;2.00;;;1.90;;
23400;SDS011;11873;49.300;8.920;2022-08-04T13:48:33;2.22;;;2.03;;
23400;SDS011;11873;49.300;8.920;2022-08-04T13:53:35;2.50;;;2.10;;
23400;SDS011;11873;49.300;8.920;2022-08-04T13:58:40;2.50;;;2.30;;
23400;SDS011;11873;49.300;8.920;2022-08-04T14:09:02;2.05;;;1.85;;
23400;SDS011;11873;49.300;8.920;2022-08-04T14:14:16;2.27;;;1.77;;
23400;SDS011;11873;49.300;8.920;2022-08-04T14:19:16;2.30;;;2.10;;
23400;SDS011;11873;49.300;8.920;2022-08-04T14:24:26;1.70;;;1.60;;
23400;SDS011;11873;49.300;8.920;2022-08-04T14:29:34;1.87;;;1.77;;
23400;SDS011;11873;49.300;8.920;2022-08-04T14:34:36;1.50;;;1.40;;
23400;SDS011;11873;49.300;8.920;2022-08-04T14:39:50;3.28;;;1.80;;
23400;SDS011;11873;49.300;8.920;2022-08-04T14:44:51;2.20;;;1.83;;
23400;SDS011;11873;49.300;8.920;2022-08-04T14:49:52;3.03;;;1.75;;
23400;SDS011;11873;49.300;8.920;2022-08-04T14:54:53;4.57;;;1.70;;
23400;SDS011;11873;49.300;8.920;2022-08-04T14:59:53;1.60;;;1.50;;
23400;SDS011;11873;49.300;8.920;2022-08-04T15:04:53;2.60;;;1.98;;
23400;SDS011;11873;49.300;8.920;2022-08-04T15:09:54;2.12;;;1.60;;
23400;SDS011;11873;49.300;8.920;2022-08-04T15:14:54;1.63;;;1.53;;
23400;SDS011;11873;49.300;8.920;2022-08-04T15:19:55;1.67;;;1.57;;
23400;SDS011;11873;49.300;8.920;2022-08-04T15:24:55;2.67;;;1.30;;
23400;SDS011;11873;49.300;8.920;2022-08-04T15:29:57;1.57;;;1.47;;
23400;SDS011;11873;49.300;8.920;2022-08-04T15:35:07;2.40;;;1.50;;
23400;SDS011;11873;49.300;8.920;2022-08-04T15:40:10;1.90;;;1.80;;
23400;SDS011;11873;49.300;8.920;2022-08-04T15:45:14;1.50;;;1.33;;
23400;SDS011;11873;49.300;8.920;2022-08-04T15:50:16;4.10;;;1.50;;
23400;SDS011;11873;49.300;8.920;2022-08-04T15:55:33;1.65;;;1.55;;
23400;SDS011;11873;49.300;8.920;2022-08-04T16:05:49;1.87;;;1.77;;
23400;SDS011;11873;49.300;8.920;2022-08-04T16:10:50;1.85;;;1.33;;
23400;SDS011;11873;49.300;8.920;2022-08-04T16:15:53;1.60;;;1.50;;
23400;SDS011;11873;49.300;8.920;2022-08-04T16:20:54;2.05;;;1.95;;
23400;SDS011;11873;49.300;8.920;2022-08-04T16:25:55;2.60;;;1.73;;
23400;SDS011;11873;49.300;8.920;2022-08-04T16:30:58;4.17;;;1.90;;
23400;SDS011;11873;49.300;8.920;2022-08-04T16:35:59;1.85;;;1.75;;
23400;SDS011;11873;49.300;8.920;2022-08-04T16:41:00;1.60;;;1.50;;
23400;SDS011;11873;49.300;8.920;2022-08-04T16:46:00;1.48;;;1.37;;
23400;SDS011;11873;49.300;8.920;2022-08-04T16:51:02;2.10;;;1.55;;
23400;SDS011;11873;49.300;8.920;2022-08-04T16:56:03;1.40;;;1.30;;
23400;SDS011;11873;49.300;8.920;2022-08-04T17:06:10;2.10;;;1.90;;
23400;SDS011;11873;49.300;8.920;2022-08-04T17:11:11;1.67;;;1.58;;
23400;SDS011;11873;49.300;8.920;2022-08-04T17:16:12;2.55;;;1.70;;
23400;SDS011;11873;49.300;8.920;2022-08-04T17:21:14;2.00;;;1.58;;
23400;SDS011;11873;49.300;8.920;2022-08-04T17:26:16;1.58;;;1.48;;
23400;SDS011;11873;49.300;8.920;2022-08-04T17:31:16;4.70;;;1.50;;
23400;SDS011;11873;49.300;8.920;2022-08-04T17:36:17;1.52;;;1.45;;
23400;SDS011;11873;49.300;8.920;2022-08-04T17:41:21;1.40;;;1.30;;
23400;SDS011;11873;49.300;8.920;2022-08-04T17:46:26;1.70;;;1.60;;
23400;SDS011;11873;49.300;8.920;2022-08-04T17:51:30;2.33;;;1.77;;
23400;SDS011;11873;49.300;8.920;2022-08-04T17:56:32;2.35;;;2.12;;
23400;SDS011;11873;49.300;8.920;2022-08-04T18:01:40;1.80;;;1.70;;
23400;SDS011;11873;49.300;8.920;2022-08-04T18:06:47;1.95;;;1.77;;
23400;SDS011;11873;49.300;8.920;2022-08-04T18:11:55;1.80;;;1.70;;
23400;SDS011;11873;49.300;8.920;2022-08-04T18:16:55;1.85;;;1.75;;
23400;SDS011;11873;49.300;8.920;2022-08-04T18:21:55;1.70;;;1.60;;
23400;SDS011;11873;49.300;8.920;2022-08-04T18:26:55;2.08;;;1.98;;
23400;SDS011;11873;49.300;8.920;2022-08-04T18:31:56;3.35;;;1.77;;
23400;SDS011;11873;49.300;8.920;2022-08-04T18:36:56;2.10;;;1.90;;
23400;SDS011;11873;49.300;8.920;2022-08-04T18:41:56;1.80;;;1.70;;
23400;SDS011;11873;49.300;8.920;2022-08-04T18:46:56;3.10;;;1.87;;
23400;SDS011;11873;49.300;8.920;2022-08-04T18:51:56;2.35;;;1.95;;
23400;SDS011;11873;49.300;8.920;2022-08-04T18:56:57;2.65;;;1.90;;
23400;SDS011;11873;49.300;8.920;2022-08-04T19:01:57;1.83;;;1.73;;
23400;SDS011;11873;49.300;8.920;2022-08-04T19:06:57;1.83;;;1.73;;
23400;SDS011;11873;49.300;8.920;2022-08-04T19:11:57;2.15;;;1.95;;
23400;SDS011;11873;49.300;8.920;2022-08-04T19:16:57;2.23;;;2.13;;
23400;SDS011;11873;49.300;8.920;2022-08-04T19:21:58;1.90;;;1.80;;
23400;SDS011;11873;49.300;8.920;2022-08-04T19:26:58;2.20;;;2.00;;
23400;SDS011;11873;49.300;8.920;2022-08-04T19:31:58;1.95;;;1.85;;
23400;SDS011;11873;49.300;8.920;2022-08-04T19:36:58;1.83;;;1.73;;
23400;SDS011;11873;49.300;8.920;2022-08-04T19:41:58;2.37;;;2.28;;
23400;SDS011;11873;49.300;8.920;2022-08-04T19:46:59;2.22;;;1.98;;
23400;SDS011;11873;49.300;8.920;2022-08-04T19:51:59;2.65;;;2.08;;
23400;SDS011;11873;49.300;8.920;2022-08-04T19:57:00;1.85;;;1.73;;
23400;SDS011;11873;49.300;8.920;2022-08-04T20:02:00;2.00;;;1.90;;
23400;SDS011;11873;49.300;8.920;2022-08-04T20:07:00;3.40;;;2.40;;
23400;SDS011;11873;49.300;8.920;2022-08-04T20:12:00;4.43;;;2.20;;
23400;SDS011;11873;49.300;8.920;2022-08-04T20:17:01;2.17;;;2.03;;
23400;SDS011;11873;49.300;8.920;2022-08-04T20:22:02;5.07;;;2.28;;
23400;SDS011;11873;49.300;8.920;2022-08-04T20:27:02;2.50;;;2.17;;
23400;SDS011;11873;49.300;8.920;2022-08-04T20:32:02;2.58;;;2.08;;
23400;SDS011;11873;49.300;8.920;2022-08-04T20:37:03;2.25;;;2.15;;
23400;SDS011;11873;49.300;8.920;2022-08-04T20:42:03;1.90;;;1.73;;
23400;SDS011;11873;49.300;8.920;2022-08-04T20:47:03;2.53;;;2.12;;
23400;SDS011;11873;49.300;8.920;2022-08-04T20:52:03;2.03;;;1.80;;
23400;SDS011;11873;49.300;8.920;2022-08-04T20:57:04;2.55;;;2.35;;
23400;SDS011;11873;49.300;8.920;2022-08-04T21:02:04;2.20;;;2.00;;
23400;SDS011;11873;49.300;8.920;2022-08-04T21:07:05;2.10;;;2.00;;
23400;SDS011;11873;49.300;8.920;2022-08-04T21:12:06;3.25;;;2.20;;
23400;SDS011;11873;49.300;8.920;2022-08-04T21:17:06;2.78;;;2.22;;
23400;SDS011;11873;49.300;8.920;2022-08-04T21:22:06;2.17;;;1.98;;
23400;SDS011;11873;49.300;8.920;2022-08-04T21:27:06;4.40;;;2.25;;
23400;SDS011;11873;49.300;8.920;2022-08-04T21:32:07;3.08;;;2.05;;
23400;SDS011;11873;49.300;8.920;2022-08-04T21:37:07;3.40;;;2.25;;
23400;SDS011;11873;49.300;8.920;2022-08-04T21:42:07;4.03;;;2.30;;
23400;SDS011;11873;49.300;8.920;2022-08-04T21:47:07;2.95;;;2.10;;
23400;SDS011;11873;49.300;8.920;2022-08-04T21:52:07;3.33;;;2.12;;
23400;SDS011;11873;49.300;8.920;2022-08-04T21:57:08;2.35;;;2.15;;
23400;SDS011;11873;49.300;8.920;2022-08-04T22:02:08;4.97;;;2.00;;
23400;SDS011;11873;49.300;8.920;2022-08-04T22:07:08;2.58;;;2.37;;
23400;SDS011;11873;49.300;8.920;2022-08-04T22:12:09;3.15;;;2.08;;
23400;SDS011;11873;49.300;8.920;2022-08-04T22:17:09;2.70;;;2.30;;
23400;SDS011;11873;49.300;8.920;2022-08-04T22:22:09;5.40;;;2.30;;
23400;SDS011;11873;49.300;8.920;2022-08-04T22:27:10;3.08;;;2.35;;
23400;SDS011;11873;49.300;8.920;2022-08-04T22:32:10;3.28;;;2.10;;
23400;SDS011;11873;49.300;8.920;2022-08-04T22:37:10;3.92;;;2.30;;
23400;SDS011;11873;49.300;8.920;2022-08-04T22:42:12;2.90;;;2.22;;
23400;SDS011;11873;49.300;8.920;2022-08-04T22:47:12;2.53;;;2.40;;
23400;SDS011;11873;49.300;8.920;2022-08-04T22:52:12;2.90;;;2.20;;
23400;SDS011;11873;49.300;8.920;2022-08-04T22:57:12;2.22;;;2.03;;
23400;SDS011;11873;49.300;8.920;2022-08-04T23:02:12;2.65;;;2.45;;
23400;SDS011;11873;49.300;8.920;2022-08-04T23:07:12;2.00;;;1.90;;
23400;SDS011;11873;49.300;8.920;2022-08-04T23:12:13;2.50;;;2.00;;
23400;SDS011;11873;49.300;8.920;2022-08-04T23:17:13;2.45;;;2.20;;
23400;SDS011;11873;49.300;8.920;2022-08-04T23:22:13;2.15;;;2.03;;
23400;SDS011;11873;49.300;8.920;2022-08-04T23:27:13;2.28;;;2.17;;
23400;SDS011;11873;49.300;8.920;2022-08-04T23:32:13;3.05;;;2.17;;
23400;SDS011;11873;49.300;8.920;2022-08-04T23:37:13;2.33;;;2.17;;
23400;SDS011;11873;49.300;8.920;2022-08-04T23:42:14;2.33;;;2.12;;
23400;SDS011;11873;49.300;8.920;2022-08-04T23:47:14;2.33;;;2.00;;
23400;SDS011;11873;49.300;8.920;2022-08-04T23:52:15;3.35;;;2.40;;
23400;SDS011;11873;49.300;8.920;2022-08-04T23:57:15;2.45;;;2.25;;
